Weather observations for the past three days for
Oakdale, Allen Parish Airport
Metric (Imperial)
Date Time (cdt) Wind (kph) Vis. (km) Weather Sky Cond. Temperature (ºC) Relative Humidity Wind Chill (°C) Heat Index (°C) Pressure Precipitation (cm)
Air Dwpt 6 hour altimeter (cm) sea level (mb) 1 hr 3 hr 6 hr
Max. Min.
04 04:35 Calm 16.09 Fair CLR 10 8 88% 76.28 0.0
04 04:15 Calm 16.09 Fair CLR 10 9 94% 76.28 0.0
04 03:55 Calm 16.09 Fair CLR 10 9 94% 76.28 0.0
04 03:35 Calm 16.09 Fair CLR 10 9 94% 76.3 0.0
04 03:15 Calm 16.09 Fair CLR 10 9 94% 76.33 0.0
04 02:55 Calm 16.09 Fair CLR 10 9 94% 76.35 0.0
04 02:35 Calm 16.09 Fair CLR 11 9 88% 76.35 0.0
04 02:15 Calm 16.09 Fair CLR 11 9 88% 76.38 0.0
04 01:35 Calm 16.09 Fair CLR 11 10 94% 76.38 0.0
04 01:15 Calm 16.09 Fair CLR 11 10 94% 76.38 0.0
04 00:55 Calm 16.09 Fair CLR 12 10 88% 76.4 0.0
04 00:35 Calm 16.09 Fair CLR 12 10 88% 76.4 0.0
04 00:15 Calm 16.09 Fair CLR 12 11 94% 76.4 0.0
03 23:55 Calm 16.09 Fair CLR 12 11 94% 76.43 0.0
03 23:35 Calm 16.09 Fair CLR 13 11 88% 76.43 0.0
03 23:15 Calm 16.09 Fair CLR 13 11 88% 76.43 0.0
03 22:55 Calm 16.09 Fair CLR 13 11 88% 76.43 0.0
03 22:35 Calm 16.09 Fair CLR 13 12 94% 76.43 0.0
03 22:15 Calm 16.09 Fair CLR 14 11 82% 76.43 0.0
03 21:55 Calm 16.09 Fair CLR 14 12 88% 76.43 0.0
03 21:35 Calm 16.09 Fair CLR 14 12 88% 76.4 0.0
03 21:15 Calm 16.09 Fair CLR 14 12 88% 76.38 0.0
03 20:55 Calm 16.09 Fair CLR 15 12 82% 76.38 0.0
03 20:35 Calm 16.09 Fair CLR 16 13 83% 76.38 0.0
03 20:15 Calm 16.09 Fair CLR 17 13 77% 76.35 0.0
03 19:55 Calm 16.09 Fair CLR 18 13 73% 76.35 0.0
03 19:35 Calm 16.09 Fair CLR 20 13 64% 76.35 0.0
03 19:15 S 6 16.09 Fair CLR 23 11 47% 76.35 0.0
03 18:55 S 6 16.09 Fair CLR 24 11 44% 25 76.35 0.0
03 18:35 S 6 16.09 Fair CLR 25 10 39% 26 76.35 0.0
03 18:15 S 6 16.09 Fair CLR 25 10 39% 26 76.38 0.0
03 17:55 S 7 16.09 Fair CLR 24 10 41% 25 76.38 0.0
03 17:35 S 7 16.09 Partly Cloudy SCT070 24 9 39% 25 76.38 0.0
03 17:15 Calm 16.09 Partly Cloudy SCT080 26 7 30% 26 76.4 0.0
03 16:55 Calm 16.09 Partly Cloudy SCT080 26 8 32% 26 76.4 0.0
03 16:35 Calm 16.09 Partly Cloudy SCT070 26 8 32% 26 76.43 0.0
03 16:15 Calm 16.09 Partly Cloudy SCT070 25 7 32% 25 76.45 0.0
03 15:55 Calm 16.09 Partly Cloudy SCT080 26 7 30% 26 76.48 0.0
03 15:35 W 7 16.09 Partly Cloudy SCT080 26 7 30% 26 76.5 0.0
03 15:15 Calm 16.09 Partly Cloudy SCT080 26 7 30% 26 76.53 0.0
03 14:55 SW 6 16.09 Fair CLR 25 6 30% 25 76.56 0.0
03 14:35 Calm 16.09 Partly Cloudy SCT070 26 7 30% 26 76.58 0.0
03 14:15 NW 6 16.09 Partly Cloudy SCT070 25 7 32% 25 76.61 0.0
03 13:55 Calm 16.09 Partly Cloudy SCT070 25 7 32% 25 76.61 0.0
03 13:35 Calm 16.09 Fair CLR 25 7 32% 25 76.66 0.0
03 13:15 Calm 16.09 Fair CLR 24 6 31% 25 76.66 0.0
03 12:55 NE 7 16.09 Fair CLR 24 6 31% 25 76.68 0.0
03 12:35 NE 9 16.09 Fair CLR 24 7 34% 25 76.68 0.0
03 12:15 NW 7 16.09 Fair CLR 24 6 31% 25 76.71 0.0
03 11:55 Calm 16.09 Fair CLR 24 6 31% 25 76.73 0.0
03 11:35 W 9 16.09 Fair CLR 23 8 38% 76.73 0.0
03 11:15 SE 6 16.09 Fair CLR 23 8 38% 76.73 0.0
03 10:55 Calm 16.09 Fair CLR 22 7 38% 76.73 0.0
03 10:35 S 7 16.09 Fair CLR 22 7 38% 76.73 0.0
03 10:15 S 9 16.09 Fair CLR 22 8 41% 76.73 0.0
03 09:55 S 6 16.09 Fair CLR 21 10 50% 76.76 0.0
03 09:35 S 6 16.09 Fair CLR 20 10 53% 76.76 0.0
03 09:15 Calm 16.09 Fair CLR 19 10 56% 76.73 0.0
03 08:55 Calm 16.09 Fair CLR 17 12 73% 76.73 0.0
03 08:35 Calm 16.09 Fair CLR 15 13 88% 76.73 0.0
03 08:15 Calm 16.09 Fair CLR 13 11 88% 76.71 0.0
03 07:55 Calm 16.09 Fair CLR 11 10 94% 76.71 0.0
03 07:35 Calm 16.09 Fair CLR 9 8 94% 76.68 0.0
03 07:15 Calm 16.09 Fair CLR 9 7 87% 76.68 0.0
03 06:55 Calm 16.09 Fair CLR 8 6 87% 76.66 0.0
03 06:35 Calm 16.09 Fair CLR 8 6 87% 76.63 0.0
03 06:15 Calm 16.09 Fair CLR 8 6 87% 76.61 0.0
03 05:55 Calm 16.09 Fair CLR 8 6 87% 76.61 0.0
03 05:35 Calm 16.09 Fair CLR 8 6 87% 76.61 0.0
03 05:15 Calm 16.09 Fair CLR 8 7 93% 76.58 0.0
03 04:55 Calm 16.09 Fair CLR 8 7 93% 76.61 0.0
03 04:35 Calm 16.09 Fair CLR 8 7 93% 76.58 0.0
03 04:15 Calm 16.09 Fair CLR 8 7 93% 76.58 0.0
03 03:55 Calm 16.09 Fair CLR 8 7 93% 76.58 0.0
03 03:35 Calm 16.09 Fair CLR 9 7 87% 76.58 0.0
03 03:15 Calm 16.09 Fair CLR 9 7 87% 76.58 0.0
03 02:55 Calm 16.09 Fair CLR 9 7 87% 76.56 0.0
03 02:35 Calm 16.09 Fair CLR 9 8 94% 76.56 0.0
03 02:15 Calm 16.09 Fair CLR 9 8 94% 76.56 0.0
03 01:55 Calm 16.09 Fair CLR 9 8 94% 76.56 0.0
03 01:35 Calm 16.09 Fair CLR 9 8 94% 76.56 0.0
03 01:15 Calm 16.09 Fair CLR 10 8 88% 76.56 0.0
03 00:55 Calm 16.09 Fair CLR 10 9 94% 76.53 0.0
03 00:35 Calm 16.09 Fair CLR 10 9 94% 76.53 0.0
03 00:15 Calm 16.09 Fair CLR 10 9 94% 76.53 0.0
02 23:55 Calm 16.09 Fair CLR 10 9 94% 76.53 0.0
02 23:35 Calm 16.09 Fair CLR 11 9 88% 76.56 0.0
02 23:15 Calm 16.09 Fair CLR 11 9 88% 76.56 0.0
02 22:55 Calm 16.09 Fair CLR 11 10 94% 76.53 0.0
02 22:35 Calm 16.09 Fair CLR 11 10 94% 76.53 0.0
02 22:15 Calm 16.09 Fair CLR 12 10 88% 76.53 0.0
02 21:55 Calm 16.09 Fair CLR 12 10 88% 76.5 0.0
02 21:35 Calm 16.09 Fair CLR 12 10 88% 76.48 0.0
02 21:15 Calm 16.09 Fair CLR 13 11 88% 76.48 0.0
02 20:55 Calm 16.09 Fair CLR 13 11 88% 76.45 0.0
02 20:35 Calm 16.09 Fair CLR 14 11 82% 76.45 0.0
02 20:15 Calm 16.09 Fair CLR 15 11 77% 76.43 0.0
02 19:55 Calm 16.09 Fair CLR 16 11 72% 76.4 0.0
02 19:35 Calm 16.09 Fair CLR 19 9 52% 76.4 0.0
02 19:15 N 6 16.09 Fair CLR 21 7 40% 76.38 0.0
02 18:55 N 9 16.09 Fair CLR 22 5 33% 76.38 0.0
02 18:35 N 13 16.09 Fair CLR 23 5 31% 76.35 0.0
02 18:15 N 9 16.09 Fair CLR 23 6 33% 76.35 0.0
02 17:55 N 13 16.09 Fair CLR 23 6 33% 76.33 0.0
02 17:35 N 15 G 26 16.09 Fair CLR 24 6 31% 25 76.33 0.0
02 17:15 N 15 G 28 16.09 Fair CLR 24 6 31% 25 76.3 0.0
02 16:55 N 13 16.09 Fair CLR 24 5 29% 25 76.3 0.0
02 16:35 N 20 G 28 16.09 Fair CLR 24 5 29% 25 76.33 0.0
02 16:15 N 19 G 26 16.09 Fair CLR 24 6 31% 25 76.3 0.0
02 15:55 N 20 G 28 16.09 Fair CLR 24 6 31% 25 76.33 0.0
02 15:35 N 17 16.09 Fair CLR 24 6 31% 25 76.35 0.0
02 15:15 N 24 G 37 16.09 Fair CLR 24 6 31% 25 76.35 0.0
02 14:55 N 13 G 28 16.09 Fair CLR 23 6 33% 76.38 0.0
02 14:35 N 13 G 28 16.09 Fair CLR 22 6 36% 76.4 0.0
02 14:15 NE 15 16.09 Fair CLR 23 6 33% 76.4 0.0
02 13:55 N 15 G 26 16.09 Fair CLR 22 6 36% 76.4 0.0
02 13:35 N 15 G 26 16.09 Fair CLR 22 6 36% 76.43 0.0
02 13:15 N 19 G 43 16.09 Fair CLR 22 6 36% 76.45 0.0
02 12:55 N 17 G 31 16.09 Fair CLR 22 6 36% 76.45 0.0
02 12:35 N 20 G 35 16.09 Fair CLR 21 6 38% 76.48 0.0
02 12:15 N 19 G 31 16.09 Fair CLR 21 7 40% 76.48 0.0
02 11:55 NE 15 G 31 16.09 Fair CLR 21 7 40% 76.48 0.0
02 11:35 N 17 G 30 16.09 Fair CLR 21 8 43% 76.48 0.0
02 11:15 N 15 G 30 16.09 Fair CLR 20 9 49% 76.48 0.0
02 10:55 N 15 16.09 Fair CLR 20 10 53% 76.48 0.0
02 10:35 N 19 G 28 16.09 Fair CLR 19 11 60% 76.45 0.0
02 10:15 N 17 16.09 Fair CLR 18 11 64% 76.48 0.0
02 09:55 N 13 16.09 Fair CLR 18 11 64% 76.45 0.0
02 09:35 N 13 16.09 Fair CLR 17 11 68% 76.43 0.0
02 09:15 N 17 16.09 Fair CLR 16 11 72% 76.4 0.0
02 08:55 N 11 16.09 Fair CLR 15 11 77% 76.38 0.0
02 08:35 N 13 16.09 Fair CLR 14 11 82% 76.38 0.0
02 08:15 N 15 16.09 Mostly Cloudy BKN004 13 11 88% 76.35 0.0
02 07:55 N 11 16.09 Overcast OVC004 12 11 94% 76.35 0.0
02 07:35 N 13 16.09 Overcast OVC004 12 10 88% 76.33 0.0
02 07:15 N 9 16.09 Overcast OVC004 12 10 88% 76.3 0.0
02 06:55 N 7 16.09 Overcast OVC004 11 10 94% 76.28 0.0
02 06:35 Calm 16.09 Overcast OVC004 11 10 94% 76.25 0.0
02 06:15 NW 6 16.09 Mostly Cloudy BKN004 11 10 94% 76.25 0.0
02 05:55 N 6 16.09 Partly Cloudy SCT085 11 9 88% 76.23 0.0
02 05:35 N 7 16.09 Mostly Cloudy BKN085 11 10 94% 76.2 0.0
02 05:15 Calm 16.09 Overcast OVC085 12 10 88% 76.2 0.0
02 04:55 N 7 16.09 Overcast SCT050 OVC075 12 10 88% 76.2 0.0
02 04:35 N 6 16.09 Overcast BKN050 BKN060 OVC075 12 10 88% 76.17 0.0
02 04:15 N 7 16.09 Overcast BKN050 BKN060 OVC075 12 10 88% 76.17 0.0
02 03:55 N 7 16.09 Overcast SCT048 BKN060 OVC070 11 10 94% 76.15 0.0
02 03:35 N 6 16.09 Overcast OVC050 11 10 94% 76.15 0.0
02 03:15 Calm 16.09 Overcast OVC050 11 9 88% 76.17 0.0
02 02:55 N 7 16.09 Overcast BKN050 OVC060 11 9 88% 76.17 0.0
02 02:35 N 6 16.09 Overcast SCT036 OVC050 11 9 88% 76.2 0.0
02 02:15 Calm 16.09 Overcast BKN034 OVC050 11 9 88% 76.2 0.0
02 01:55 NE 6 16.09 Overcast OVC032 11 9 88% 76.2 0.0 0.03
02 01:35 NE 11 16.09 Overcast OVC030 11 9 88% 76.17 0.0 0.03
02 01:15 N 11 16.09 Light Drizzle BKN009 OVC028 11 10 94% 76.17 0.0 0.03
02 00:55 N 13 16.09 Light Rain OVC007 11 10 94% 76.2 0.0 0.13
02 00:35 N 17 16.09 Light Rain OVC007 11 10 94% 76.17 0.0 0.1
02 00:15 N 13 16.09 Rain OVC007 11 10 94% 76.15 0.0 0.03
01 23:55 N 11 16.09 Drizzle OVC007 11 10 94% 76.17 0.0 0.18
01 23:35 N 9 16.09 Drizzle OVC007 11 10 94% 76.15 0.0 0.13
01 23:15 NE 11 11.27 Light Rain OVC007 12 10 88% 76.15 0.0 0.08
01 22:55 N 13 16.09 Rain OVC007 12 10 88% 76.17 0.0 0.18
01 22:35 N 13 16.09 Rain BKN009 OVC015 12 10 88% 76.17 0.0 0.15
01 22:15 N 13 16.09 Rain OVC009 12 10 88% 76.17 0.0 0.05
01 21:55 N 7 16.09 Light Drizzle OVC009 12 10 88% 76.15 0.0 0.03
01 21:35 NE 11 16.09 Drizzle OVC009 12 10 88% 76.1 0.0
01 21:15 NE 13 16.09 Overcast OVC007 12 10 88% 76.02 0.0
01 20:55 N 13 16.09 Overcast OVC007 12 10 88% 76 0.0
01 20:35 N 15 G 30 16.09 Overcast OVC007 12 10 88% 75.95 0.0
01 20:15 N 13 16.09 Overcast OVC007 12 11 94% 75.97 0.0
01 19:55 NE 15 G 30 16.09 Overcast OVC005 12 11 94% 75.92 0.0 0.13
01 19:35 N 22 G 33 16.09 Light Drizzle OVC005 13 11 88% 75.9 0.0 0.1
01 19:15 N 13 16.09 Light Rain OVC007 13 11 88% 75.95 0.0 0.05
01 18:55 NE 7 11.27 Rain OVC005 13 11 88% 76.02 0.0 0.3
01 18:35 N 9 16.09 Light Rain OVC005 13 12 94% 76.02 0.0 0.18
01 18:15 N 7 16.09 Light Rain OVC007 13 12 94% 76.05 0.0 0.1
01 17:55 N 9 11.27 Light Rain BKN007 OVC011 13 12 94% 76.02 0.0 0.51
01 17:35 Calm 8.05 Light Rain OVC007 13 12 94% 75.95 0.0 0.41
01 17:15 NE 7 8.05 Rain OVC007 13 12 94% 75.92 0.0 0.2
01 16:55 NE 7 11.27 Light Rain OVC007 13 12 94% 75.84 0.0 0.46
01 16:35 NE 9 11.27 Light Rain OVC007 14 12 88% 75.84 0.0 0.25
01 16:15 NE 11 11.27 Drizzle OVC007 14 12 88% 75.77 0.0 0.1
01 15:55 NE 9 16.09 Light Drizzle OVC009 14 12 88% 75.9 0.0 0.2
01 15:35 N 13 16.09 Light Rain OVC009 14 13 94% 75.87 0.0 0.15
01 15:15 NE 13 16.09 Light Rain BKN005 OVC009 15 13 88% 75.92 0.0 0.1
01 14:55 NE 6 11.27 Light Rain OVC007 15 13 88% 75.9 0.0 0.51
01 14:35 NE 15 G 26 11.27 Light Rain BKN005 OVC009 15 13 88% 75.9 0.0 0.36
01 14:15 NE 9 8.05 Rain OVC005 15 13 88% 75.9 0.0 0.2
01 13:55 NE 7 11.27 Rain OVC007 15 13 88% 76 0.0 0.1
01 13:35 N 11 G 30 16.09 Overcast OVC007 15 13 88% 75.92 0.0 0.03
01 13:15 N 11 G 26 16.09 Light Drizzle OVC007 15 13 88% 75.97 0.0
01 12:55 NE 19 G 26 16.09 Overcast OVC007 15 13 88% 76.02 0.0
01 12:35 N 19 G 28 16.09 Overcast OVC007 15 13 88% 76 0.0
01 12:15 N 13 16.09 Light Drizzle OVC007 16 14 88% 76 0.0
01 11:55 NE 11 G 28 16.09 Overcast OVC007 16 14 88% 75.97 0.0 0.05
01 11:35 NE 19 G 28 16.09 Light Drizzle OVC007 16 14 88% 76 0.0 0.05
01 11:15 N 13 G 26 16.09 Light Drizzle OVC007 16 14 88% 76.02 0.0 0.05
01 10:55 N 13 11.27 Rain OVC007 16 14 88% 76.02 0.0 0.46
01 10:35 Calm 6.44 Rain OVC005 16 15 94% 76.12 0.0 0.36
01 10:15 N 9 11.27 Light Rain BKN007 BKN011 OVC050 16 15 94% 76.1 0.0 0.18
01 09:55 N 7 11.27 Drizzle OVC005 16 15 94% 76.1 0.0 0.08
01 09:35 N 6 16.09 Overcast OVC005 16 15 94% 76.1 0.0
01 09:15 NE 9 16.09 Overcast OVC005 17 15 88% 76.02 0.0
01 08:55 N 9 16.09 Light Drizzle OVC005 17 15 88% 76 0.0 0.03
01 08:35 N 9 16.09 Overcast OVC005 16 15 94% 76 0.0 0.03
01 08:15 N 17 16.09 Light Drizzle OVC005 16 15 94% 75.95 0.0
01 07:55 N 9 16.09 Light Drizzle OVC005 16 15 94% 76 0.0 0.25
01 07:35 N 9 16.09 Rain OVC005 16 15 94% 76.02 0.0 0.23
01 07:15 N 9 11.27 Light Rain OVC005 17 15 88% 76.05 0.0 0.15
01 06:55 N 6 11.27 Light Rain OVC005 17 15 88% 76.05 0.0 0.28
01 06:35 N 9 16.09 Light Rain BKN005 OVC008 17 15 88% 75.95 0.0 0.15
01 06:15 N 6 16.09 Drizzle BKN007 OVC018 17 15 88% 75.95 0.0 0.08
01 05:55 N 7 16.09 Rain OVC007 17 16 94% 75.95 0.0 0.05
01 05:35 N 9 16.09 Light Drizzle OVC005 17 16 94% 75.92 0.0 0.03
01 05:15 N 7 16.09 Rain OVC003 18 16 88% 75.92 0.0
01 04:55 N 7 16.09 Overcast OVC003 18 16 88% 75.87 0.0 0.03
Date Time (cdt) Wind (kph) Vis. (km) Weather Sky Cond. Air Dwpt Max. Min. Relative Humidity Wind Chill (°C) Heat Index (°C) altimeter (cm) sea level (mb) 1 hr 3 hr 6 hr
6 hour
Temperature (ºC) Pressure Precipitation (cm)